Logo AVAMET
Benvolgut visitant, si us plau, ingressa Recuperar contrasenya
AVAMET paisatges

Inforatge Castelló de la Plana Tetuan

Dades diàries. Acumulats / Últims 30 dies disponibles

Data Temperatura (°C) Humitat rel. (%) Pressió rel. (hPa) Vent (km/h) Precipitació
Mínima Mitjana Màxima Amplitud
tèrmica
Mínima Mitjana Màxima Mínima Mitjana Màxima Predom. Mitjana Ràfega
màxima
Total
(mm)
Índex-n
Mínima Mitjana Màxima Mínima Mitjana Màxima n
0 a 1
P0 max
mm 5'
Dades mensuals acumulades fins l'últim dia disponible
02/2021 5,0 10,9 17,6 13,9 13,6 17,5 25,2 20,2 28 71 93 998 1.017 1.037   6,1 67,6 8,4
Dades anuals acumulades fins l'últim dia disponible
2021 2,1 8,8 17,6 12,5 7,7 16,6 27,8 25,7 28 65 93 998 1.016 1.037   6,6 74,0 29,0
Últims 30 dies disponibles
24-02-2021 11,9     13,6     15,7 3,8 76 84 90 1.032 1.034 1.037 E 2,7 19,3 0,0
23-02-2021 10,2     13,2     16,7 6,5 62 74 89 1.027 1.033 1.037 E 6,4 24,1 0,0
22-02-2021 9,1     12,8     16,0 6,9 67 79 91 1.006 1.016 1.027 E 8,0 48,3 4,6
21-02-2021 11,2     13,6     15,6 4,4 74 80 84 1.006 1.011 1.018 NNE 14,6 46,7 0,0
20-02-2021 10,8     12,2     14,8 4,0 72 81 86 1.018 1.020 1.021 E 4,7 24,1 0,0
19-02-2021 5,0     9,9     13,6 8,6 75 86 92 1.020 1.021 1.023 E 2,1 17,7 0,0
18-02-2021 10,3     11,8     15,1 4,8 82 89 90 1.019 1.020 1.022 E 2,4 22,5 0,0
17-02-2021 9,1     11,9     15,3 6,2 74 82 88 1.022 1.023 1.025 E 2,4 20,9 0,0
16-02-2021 8,7     12,2     15,4 6,7 64 78 88 1.024 1.028 1.033 WNW 2,7 19,3 0,0
15-02-2021 9,4     11,4     14,2 4,8 77 87 93 1.033 1.035 1.036 NNE 4,7 20,9 3,2
14-02-2021 9,9     12,2     16,5 6,6 60 76 89 1.027 1.032 1.036 NE 5,8 29,0 0,0
13-02-2021 11,7     14,9     19,2 7,5 40 61 78 1.019 1.023 1.027 E 4,8 33,8 0,0
12-02-2021 13,1     16,6     22,0 8,9 35 60 77 1.014 1.016 1.019 NW 6,3 51,5 0,0
11-02-2021 10,9     15,0     20,7 9,8 42 56 75 1.016 1.017 1.018 E 3,2 19,3 0,0
10-02-2021 10,9     15,1     19,4 8,5 32 51 75 1.001 1.007 1.016 WNW 10,6 57,9 0,6
09-02-2021 12,1     14,2     17,3 5,2 56 61 68 1.001 1.005 1.008 WSW 13,0 53,1 0,0
08-02-2021 12,1     14,9     19,9 7,8 37 55 71 998 1.001 1.005 WNW 8,9 43,5 0,0
07-02-2021 10,4     13,4     16,4 6,0 47 57 77 1.003 1.004 1.005 E 5,0 29,0 0,0
06-02-2021 10,4     15,0     19,9 9,5 45 68 84 1.000 1.002 1.005 WSW 6,0 37,0 0,0
05-02-2021 11,8     13,1     15,1 3,3 72 82 88 1.004 1.009 1.013 NNE 6,0 43,5 0,0
04-02-2021 11,3     13,3     16,5 5,2 64 79 87 1.011 1.013 1.014 E 3,7 25,7 0,0
03-02-2021 10,5     14,2     17,4 6,9 64 71 82 1.012 1.013 1.014 E 1,6 12,9 0,0
02-02-2021 13,1     17,6     21,6 8,5 47 57 74 1.013 1.014 1.016 SSO 5,3 27,4 0,0
01-02-2021 17,6     20,8     25,2 7,6 28 41 55 1.005 1.008 1.013 WNW 14,5 67,6 0,0
31-01-2021 12,2     17,6     22,7 10,5 37 46 57 1.004 1.006 1.008 SSO 8,8 48,3 0,0
30-01-2021 14,0     18,1     21,7 7,7 30 49 68 1.004 1.008 1.015 WNW 12,4 69,2 0,0
29-01-2021 15,3     20,2     27,8 12,5 29 53 69 1.015 1.017 1.019 WNW 5,1 29,0 0,0
28-01-2021 13,3     19,3     27,1 13,8 41 62 79 1.018 1.020 1.022 WSW 3,2 19,3 0,0
27-01-2021 10,3     18,1     25,4 15,1 43 66 91 1.019 1.021 1.022 WSW 5,6 45,1 0,0
26-01-2021 9,1     12,6     15,2 6,1 63 80 90 1.017 1.022 1.024 SSW 3,5 24,1 0,0
Últims 13 mesos disponibles
01/2021 2,1 7,1 15,3 11,5 7,7 16,0 27,8 25,7 42 60 83 1.006 1.015 1.027 WNW 7,1 74,0 20,6
12/2020 1,3 8,3 12,0 12,6 13,4 16,7 20,7 19,4 40 59 86 995 1.009 1.021 WNW 5,1 83,7 5,2
11/2020 7,2 12,3 16,8 15,9 16,8 19,6 23,9 16,7 50 78 88 1.006 1.022 1.029 E 4,6 51,5 78,0
10/2020 9,6 14,3 19,4 18,9 18,3 23,3 29,6 20,0 42 61 84 996 1.017 1.026 E 5,0 72,4 3,6
09/2020 13,7 19,1 21,6 23,5 23,3 27,5 31,0 17,3 40 65 81 1.010 1.017 1.024 E 4,4 51,5 22,4
08/2020 15,9 23,1 25,6 26,6 25,7 30,0 31,8 15,9 49 70 80 1.004 1.014 1.019 E 5,5 48,3 12,8
07/2020 19,8 22,8 25,0 26,2 27,1 29,5 33,1 13,3 49 71 80 1.011 1.016 1.021 E 5,4 45,1 1,4
06/2020 14,3 18,9 22,7 22,7 20,9 26,1 30,5 16,2 44 70 82 1.004 1.014 1.021 E 5,4 62,8 29,6
05/2020 13,9 17,0 20,9 21,0 18,2 24,8 30,6 16,7 49 70 81 1.004 1.017 1.028 E 5,0 46,7 25,8
04/2020 7,9 12,8 17,3 15,9 15,7 19,6 27,8 19,9 50 77 90 1.005 1.016 1.026 E 4,6 48,3 117,6
03/2020 5,9 10,6 15,3 14,1 12,2 17,8 24,8 18,9 44 69 91 1.005 1.017 1.027 E 7,3 75,6 100,2
02/2020 5,7 10,3 13,2 14,5 14,2 19,1 25,6 19,9 46 72 86 1.012 1.025 1.033 E 2,9 51,5 0,4
01/2020 2,6 7,8 13,7 11,7 10,4 15,7 21,9 19,3 60 75 95 1.018 1.025 1.032 E 5,3 93,3 71,2
Tots els anys disponibles
2020 1,3 14,8 25,6 18,7 10,4 22,5 33,1 31,8 40 70 95 995 1.018 1.033 E 5,1 93,3 468,2
2019 2,3 14,5 25,8 18,6 12,3 22,5 37,5 35,2 0 64 88 0 1.008 1.034 S 6,3 90,7 258,6
Temperatura (°C)
Humitat relativa (%)
Velocitat del vent i ràfega màxima (km/h)
Direcció del vent (°)
Pressió (hPa)
Precipitació (mm)
Nota sobre les dades: s'avisa a l'usuari de la provisionalitat i no oficialitat d'aquestes dades
Logo AVAMET blanc
Web allotjada a Sollutia
Llicència de Creative CommonsLa web d'AVAMET i els seus continguts estan subjectes a una llicència de
Reconeixement - No Comercial - Compartir igual
Avís legal - Política de privacitat - Política de cookies
NOVES ESTACIONS: Barx (Soci), Font de la Figuera - El Carrascal, Sagunt - Casc Urbà, Tous & Casinos - Aj. (Inforatge), Alcoi - Círculo Industrial (Soci), Requena - San Antonio (Soci), Beniatjar (Soci), Elx - Carrús (Soci), Castelló de la Plana - Serradal (Soci), Teulada - El Pla (Soci), Dénia - la Xara (Soci) - - -